sensor_id;sensor_type;location;lat;lon;timestamp;P1;durP1;ratioP1;P2;durP2;ratioP2
9997;SDS011;5038;53.064;8.624;2022-07-29T00:01:17;3.63;;;2.60;;
9997;SDS011;5038;53.064;8.624;2022-07-29T00:03:47;3.67;;;2.90;;
9997;SDS011;5038;53.064;8.624;2022-07-29T00:06:16;3.73;;;2.53;;
9997;SDS011;5038;53.064;8.624;2022-07-29T00:08:45;4.40;;;2.50;;
9997;SDS011;5038;53.064;8.624;2022-07-29T00:11:13;4.10;;;2.67;;
9997;SDS011;5038;53.064;8.624;2022-07-29T00:13:42;4.80;;;2.80;;
9997;SDS011;5038;53.064;8.624;2022-07-29T00:16:16;3.17;;;2.20;;
9997;SDS011;5038;53.064;8.624;2022-07-29T00:18:44;3.40;;;2.80;;
9997;SDS011;5038;53.064;8.624;2022-07-29T00:21:14;3.67;;;2.40;;
9997;SDS011;5038;53.064;8.624;2022-07-29T00:23:43;4.20;;;2.30;;
9997;SDS011;5038;53.064;8.624;2022-07-29T00:26:11;3.20;;;2.60;;
9997;SDS011;5038;53.064;8.624;2022-07-29T00:28:39;2.97;;;2.60;;
9997;SDS011;5038;53.064;8.624;2022-07-29T00:31:07;3.73;;;2.70;;
9997;SDS011;5038;53.064;8.624;2022-07-29T00:33:35;5.63;;;2.60;;
9997;SDS011;5038;53.064;8.624;2022-07-29T00:36:04;7.40;;;3.03;;
9997;SDS011;5038;53.064;8.624;2022-07-29T00:38:32;3.93;;;2.90;;
9997;SDS011;5038;53.064;8.624;2022-07-29T00:41:01;2.93;;;2.47;;
9997;SDS011;5038;53.064;8.624;2022-07-29T00:43:29;4.53;;;2.63;;
9997;SDS011;5038;53.064;8.624;2022-07-29T00:45:57;3.30;;;2.43;;
9997;SDS011;5038;53.064;8.624;2022-07-29T00:48:25;3.00;;;2.60;;
9997;SDS011;5038;53.064;8.624;2022-07-29T00:50:53;4.30;;;3.13;;
9997;SDS011;5038;53.064;8.624;2022-07-29T00:53:24;5.03;;;2.70;;
9997;SDS011;5038;53.064;8.624;2022-07-29T00:55:55;4.93;;;3.10;;
9997;SDS011;5038;53.064;8.624;2022-07-29T00:58:23;4.70;;;2.93;;
9997;SDS011;5038;53.064;8.624;2022-07-29T01:00:53;4.80;;;3.00;;
9997;SDS011;5038;53.064;8.624;2022-07-29T01:03:22;3.87;;;2.57;;
9997;SDS011;5038;53.064;8.624;2022-07-29T01:05:50;4.20;;;3.03;;
9997;SDS011;5038;53.064;8.624;2022-07-29T01:08:19;3.07;;;2.77;;
9997;SDS011;5038;53.064;8.624;2022-07-29T01:10:48;3.60;;;2.73;;
9997;SDS011;5038;53.064;8.624;2022-07-29T01:13:19;6.33;;;2.87;;
9997;SDS011;5038;53.064;8.624;2022-07-29T01:15:49;4.53;;;3.10;;
9997;SDS011;5038;53.064;8.624;2022-07-29T01:18:24;3.40;;;2.43;;
9997;SDS011;5038;53.064;8.624;2022-07-29T01:21:15;3.20;;;2.67;;
9997;SDS011;5038;53.064;8.624;2022-07-29T01:24:11;5.90;;;2.93;;
9997;SDS011;5038;53.064;8.624;2022-07-29T01:26:53;4.10;;;2.63;;
9997;SDS011;5038;53.064;8.624;2022-07-29T01:29:28;4.90;;;2.90;;
9997;SDS011;5038;53.064;8.624;2022-07-29T01:32:05;4.30;;;2.53;;
9997;SDS011;5038;53.064;8.624;2022-07-29T01:34:55;3.87;;;3.00;;
9997;SDS011;5038;53.064;8.624;2022-07-29T01:37:29;4.87;;;2.50;;
9997;SDS011;5038;53.064;8.624;2022-07-29T01:40:04;5.53;;;3.13;;
9997;SDS011;5038;53.064;8.624;2022-07-29T01:42:43;3.70;;;2.87;;
9997;SDS011;5038;53.064;8.624;2022-07-29T01:45:17;4.77;;;2.53;;
9997;SDS011;5038;53.064;8.624;2022-07-29T01:47:51;4.07;;;2.90;;
9997;SDS011;5038;53.064;8.624;2022-07-29T01:50:26;4.20;;;2.63;;
9997;SDS011;5038;53.064;8.624;2022-07-29T01:53:01;4.97;;;2.77;;
9997;SDS011;5038;53.064;8.624;2022-07-29T01:55:34;3.40;;;2.67;;
9997;SDS011;5038;53.064;8.624;2022-07-29T01:58:04;5.17;;;3.23;;
9997;SDS011;5038;53.064;8.624;2022-07-29T02:00:34;3.43;;;2.30;;
9997;SDS011;5038;53.064;8.624;2022-07-29T02:03:09;3.70;;;2.83;;
9997;SDS011;5038;53.064;8.624;2022-07-29T02:05:40;4.23;;;2.70;;
9997;SDS011;5038;53.064;8.624;2022-07-29T02:08:11;6.43;;;3.40;;
9997;SDS011;5038;53.064;8.624;2022-07-29T02:10:40;4.03;;;2.90;;
9997;SDS011;5038;53.064;8.624;2022-07-29T02:13:11;3.50;;;2.30;;
9997;SDS011;5038;53.064;8.624;2022-07-29T02:15:42;2.50;;;2.20;;
9997;SDS011;5038;53.064;8.624;2022-07-29T02:18:13;2.67;;;2.00;;
9997;SDS011;5038;53.064;8.624;2022-07-29T02:20:45;4.80;;;2.73;;
9997;SDS011;5038;53.064;8.624;2022-07-29T02:23:18;4.83;;;2.70;;
9997;SDS011;5038;53.064;8.624;2022-07-29T02:25:48;8.10;;;3.10;;
9997;SDS011;5038;53.064;8.624;2022-07-29T02:28:19;3.30;;;2.27;;
9997;SDS011;5038;53.064;8.624;2022-07-29T02:30:51;3.80;;;2.80;;
9997;SDS011;5038;53.064;8.624;2022-07-29T02:33:20;3.57;;;2.77;;
9997;SDS011;5038;53.064;8.624;2022-07-29T02:35:51;3.33;;;2.40;;
9997;SDS011;5038;53.064;8.624;2022-07-29T02:38:20;3.23;;;2.50;;
9997;SDS011;5038;53.064;8.624;2022-07-29T02:41:08;4.93;;;2.83;;
9997;SDS011;5038;53.064;8.624;2022-07-29T02:43:38;6.07;;;3.27;;
9997;SDS011;5038;53.064;8.624;2022-07-29T02:46:11;4.83;;;2.60;;
9997;SDS011;5038;53.064;8.624;2022-07-29T02:48:56;3.53;;;2.30;;
9997;SDS011;5038;53.064;8.624;2022-07-29T02:51:28;4.20;;;2.90;;
9997;SDS011;5038;53.064;8.624;2022-07-29T02:54:10;3.70;;;2.77;;
9997;SDS011;5038;53.064;8.624;2022-07-29T02:56:44;3.23;;;2.53;;
9997;SDS011;5038;53.064;8.624;2022-07-29T02:59:14;3.67;;;2.60;;
9997;SDS011;5038;53.064;8.624;2022-07-29T03:01:50;7.93;;;3.03;;
9997;SDS011;5038;53.064;8.624;2022-07-29T03:04:19;6.37;;;2.83;;
9997;SDS011;5038;53.064;8.624;2022-07-29T03:06:50;3.10;;;2.43;;
9997;SDS011;5038;53.064;8.624;2022-07-29T03:09:19;4.27;;;2.80;;
9997;SDS011;5038;53.064;8.624;2022-07-29T03:11:49;5.23;;;2.80;;
9997;SDS011;5038;53.064;8.624;2022-07-29T03:14:18;3.83;;;2.50;;
9997;SDS011;5038;53.064;8.624;2022-07-29T03:16:47;2.90;;;2.50;;
9997;SDS011;5038;53.064;8.624;2022-07-29T03:19:18;4.57;;;2.63;;
9997;SDS011;5038;53.064;8.624;2022-07-29T03:21:47;3.93;;;2.90;;
9997;SDS011;5038;53.064;8.624;2022-07-29T03:24:25;3.30;;;2.70;;
9997;SDS011;5038;53.064;8.624;2022-07-29T03:26:55;3.67;;;3.20;;
9997;SDS011;5038;53.064;8.624;2022-07-29T03:29:24;5.80;;;3.10;;
9997;SDS011;5038;53.064;8.624;2022-07-29T03:32:01;4.27;;;2.93;;
9997;SDS011;5038;53.064;8.624;2022-07-29T03:34:34;4.43;;;2.80;;
9997;SDS011;5038;53.064;8.624;2022-07-29T03:37:03;5.00;;;2.80;;
9997;SDS011;5038;53.064;8.624;2022-07-29T03:39:34;4.23;;;2.90;;
9997;SDS011;5038;53.064;8.624;2022-07-29T03:42:08;5.30;;;3.90;;
9997;SDS011;5038;53.064;8.624;2022-07-29T03:44:40;4.53;;;2.80;;
9997;SDS011;5038;53.064;8.624;2022-07-29T03:47:11;5.70;;;3.80;;
9997;SDS011;5038;53.064;8.624;2022-07-29T03:49:41;2.90;;;2.60;;
9997;SDS011;5038;53.064;8.624;2022-07-29T03:52:11;5.20;;;3.33;;
9997;SDS011;5038;53.064;8.624;2022-07-29T03:54:40;3.10;;;2.80;;
9997;SDS011;5038;53.064;8.624;2022-07-29T03:57:09;4.03;;;2.60;;
9997;SDS011;5038;53.064;8.624;2022-07-29T03:59:39;4.57;;;2.83;;
9997;SDS011;5038;53.064;8.624;2022-07-29T04:02:08;4.57;;;2.90;;
9997;SDS011;5038;53.064;8.624;2022-07-29T04:04:43;4.53;;;2.93;;
9997;SDS011;5038;53.064;8.624;2022-07-29T04:07:11;4.27;;;3.00;;
9997;SDS011;5038;53.064;8.624;2022-07-29T04:09:40;8.30;;;3.60;;
9997;SDS011;5038;53.064;8.624;2022-07-29T04:12:08;5.00;;;3.40;;
9997;SDS011;5038;53.064;8.624;2022-07-29T04:14:37;6.17;;;3.73;;
9997;SDS011;5038;53.064;8.624;2022-07-29T04:17:05;5.80;;;2.83;;
9997;SDS011;5038;53.064;8.624;2022-07-29T04:19:34;4.40;;;3.03;;
9997;SDS011;5038;53.064;8.624;2022-07-29T04:22:03;3.50;;;2.90;;
9997;SDS011;5038;53.064;8.624;2022-07-29T04:24:31;7.27;;;3.60;;
9997;SDS011;5038;53.064;8.624;2022-07-29T04:26:59;4.50;;;3.27;;
9997;SDS011;5038;53.064;8.624;2022-07-29T04:29:28;4.40;;;2.70;;
9997;SDS011;5038;53.064;8.624;2022-07-29T04:31:56;3.87;;;3.20;;
9997;SDS011;5038;53.064;8.624;2022-07-29T04:34:24;4.23;;;3.40;;
9997;SDS011;5038;53.064;8.624;2022-07-29T04:36:53;4.60;;;3.13;;
9997;SDS011;5038;53.064;8.624;2022-07-29T04:39:23;4.03;;;3.23;;
9997;SDS011;5038;53.064;8.624;2022-07-29T04:41:55;7.20;;;3.67;;
9997;SDS011;5038;53.064;8.624;2022-07-29T04:44:24;5.13;;;3.47;;
9997;SDS011;5038;53.064;8.624;2022-07-29T04:46:54;8.43;;;3.67;;
9997;SDS011;5038;53.064;8.624;2022-07-29T04:49:23;5.47;;;3.30;;
9997;SDS011;5038;53.064;8.624;2022-07-29T04:51:52;4.53;;;3.60;;
9997;SDS011;5038;53.064;8.624;2022-07-29T04:54:21;3.73;;;3.20;;
9997;SDS011;5038;53.064;8.624;2022-07-29T04:56:52;4.50;;;3.43;;
9997;SDS011;5038;53.064;8.624;2022-07-29T04:59:20;5.70;;;4.33;;
9997;SDS011;5038;53.064;8.624;2022-07-29T05:01:48;5.47;;;3.23;;
9997;SDS011;5038;53.064;8.624;2022-07-29T05:04:17;5.10;;;3.37;;
9997;SDS011;5038;53.064;8.624;2022-07-29T05:06:46;5.40;;;3.17;;
9997;SDS011;5038;53.064;8.624;2022-07-29T05:09:14;4.60;;;3.40;;
9997;SDS011;5038;53.064;8.624;2022-07-29T05:11:42;10.13;;;3.60;;
9997;SDS011;5038;53.064;8.624;2022-07-29T05:14:18;5.93;;;3.87;;
9997;SDS011;5038;53.064;8.624;2022-07-29T05:16:46;4.93;;;3.53;;
9997;SDS011;5038;53.064;8.624;2022-07-29T05:19:17;4.30;;;3.13;;
9997;SDS011;5038;53.064;8.624;2022-07-29T05:21:45;4.27;;;3.80;;
9997;SDS011;5038;53.064;8.624;2022-07-29T05:24:14;3.93;;;2.97;;
9997;SDS011;5038;53.064;8.624;2022-07-29T05:26:42;3.63;;;3.20;;
9997;SDS011;5038;53.064;8.624;2022-07-29T05:29:11;4.83;;;3.60;;
9997;SDS011;5038;53.064;8.624;2022-07-29T05:32:00;5.90;;;3.80;;
9997;SDS011;5038;53.064;8.624;2022-07-29T05:34:28;4.67;;;3.63;;
9997;SDS011;5038;53.064;8.624;2022-07-29T05:36:57;4.87;;;4.40;;
9997;SDS011;5038;53.064;8.624;2022-07-29T05:39:25;4.70;;;2.97;;
9997;SDS011;5038;53.064;8.624;2022-07-29T05:42:13;5.53;;;3.77;;
9997;SDS011;5038;53.064;8.624;2022-07-29T05:44:41;6.60;;;4.03;;
9997;SDS011;5038;53.064;8.624;2022-07-29T05:47:10;4.10;;;3.67;;
9997;SDS011;5038;53.064;8.624;2022-07-29T05:49:39;4.20;;;3.63;;
9997;SDS011;5038;53.064;8.624;2022-07-29T05:52:07;4.43;;;3.57;;
9997;SDS011;5038;53.064;8.624;2022-07-29T05:54:35;4.10;;;3.07;;
9997;SDS011;5038;53.064;8.624;2022-07-29T05:57:04;3.57;;;2.90;;
9997;SDS011;5038;53.064;8.624;2022-07-29T05:59:34;4.00;;;3.20;;
9997;SDS011;5038;53.064;8.624;2022-07-29T06:02:03;6.30;;;3.73;;
9997;SDS011;5038;53.064;8.624;2022-07-29T06:04:33;6.10;;;3.80;;
9997;SDS011;5038;53.064;8.624;2022-07-29T06:07:02;4.47;;;3.43;;
9997;SDS011;5038;53.064;8.624;2022-07-29T06:09:31;4.60;;;3.30;;
9997;SDS011;5038;53.064;8.624;2022-07-29T06:12:02;3.50;;;3.10;;
9997;SDS011;5038;53.064;8.624;2022-07-29T06:14:30;4.47;;;3.43;;
9997;SDS011;5038;53.064;8.624;2022-07-29T06:16:58;7.50;;;4.07;;
9997;SDS011;5038;53.064;8.624;2022-07-29T06:19:27;4.87;;;2.90;;
9997;SDS011;5038;53.064;8.624;2022-07-29T06:21:56;5.63;;;3.30;;
9997;SDS011;5038;53.064;8.624;2022-07-29T06:24:24;8.93;;;3.37;;
9997;SDS011;5038;53.064;8.624;2022-07-29T06:26:53;7.27;;;4.30;;
9997;SDS011;5038;53.064;8.624;2022-07-29T06:29:22;5.07;;;3.73;;
9997;SDS011;5038;53.064;8.624;2022-07-29T06:31:50;6.00;;;3.97;;
9997;SDS011;5038;53.064;8.624;2022-07-29T06:34:18;4.67;;;3.57;;
9997;SDS011;5038;53.064;8.624;2022-07-29T06:36:47;4.00;;;3.60;;
9997;SDS011;5038;53.064;8.624;2022-07-29T06:39:19;5.00;;;3.40;;
9997;SDS011;5038;53.064;8.624;2022-07-29T06:41:47;4.10;;;3.63;;
9997;SDS011;5038;53.064;8.624;2022-07-29T06:44:16;4.97;;;3.70;;
9997;SDS011;5038;53.064;8.624;2022-07-29T06:46:45;3.70;;;3.40;;
9997;SDS011;5038;53.064;8.624;2022-07-29T06:49:15;6.43;;;3.40;;
9997;SDS011;5038;53.064;8.624;2022-07-29T06:51:43;9.23;;;3.57;;
9997;SDS011;5038;53.064;8.624;2022-07-29T06:54:12;4.63;;;3.33;;
9997;SDS011;5038;53.064;8.624;2022-07-29T06:56:41;5.60;;;3.77;;
9997;SDS011;5038;53.064;8.624;2022-07-29T06:59:10;5.17;;;3.37;;
9997;SDS011;5038;53.064;8.624;2022-07-29T07:01:40;6.23;;;4.43;;
9997;SDS011;5038;53.064;8.624;2022-07-29T07:04:10;4.60;;;3.60;;
9997;SDS011;5038;53.064;8.624;2022-07-29T07:06:40;6.57;;;3.50;;
9997;SDS011;5038;53.064;8.624;2022-07-29T07:09:08;5.03;;;3.27;;
9997;SDS011;5038;53.064;8.624;2022-07-29T07:11:36;4.97;;;4.23;;
9997;SDS011;5038;53.064;8.624;2022-07-29T07:14:06;6.60;;;4.63;;
9997;SDS011;5038;53.064;8.624;2022-07-29T07:16:34;5.30;;;3.60;;
9997;SDS011;5038;53.064;8.624;2022-07-29T07:19:02;4.90;;;3.50;;
9997;SDS011;5038;53.064;8.624;2022-07-29T07:21:31;4.17;;;3.27;;
9997;SDS011;5038;53.064;8.624;2022-07-29T07:24:01;7.10;;;3.80;;
9997;SDS011;5038;53.064;8.624;2022-07-29T07:26:29;4.77;;;3.40;;
9997;SDS011;5038;53.064;8.624;2022-07-29T07:28:58;4.07;;;3.57;;
9997;SDS011;5038;53.064;8.624;2022-07-29T07:31:28;5.80;;;4.00;;
9997;SDS011;5038;53.064;8.624;2022-07-29T07:33:56;5.10;;;4.00;;
9997;SDS011;5038;53.064;8.624;2022-07-29T07:36:25;6.10;;;3.40;;
9997;SDS011;5038;53.064;8.624;2022-07-29T07:38:53;5.00;;;3.40;;
9997;SDS011;5038;53.064;8.624;2022-07-29T07:41:21;4.87;;;4.13;;
9997;SDS011;5038;53.064;8.624;2022-07-29T07:43:50;6.03;;;3.90;;
9997;SDS011;5038;53.064;8.624;2022-07-29T07:46:18;3.83;;;2.87;;
9997;SDS011;5038;53.064;8.624;2022-07-29T07:48:48;9.90;;;4.70;;
9997;SDS011;5038;53.064;8.624;2022-07-29T07:51:16;4.20;;;3.40;;
9997;SDS011;5038;53.064;8.624;2022-07-29T07:53:44;6.37;;;3.70;;
9997;SDS011;5038;53.064;8.624;2022-07-29T07:56:15;4.40;;;4.00;;
9997;SDS011;5038;53.064;8.624;2022-07-29T07:58:43;6.43;;;3.53;;
9997;SDS011;5038;53.064;8.624;2022-07-29T08:01:12;4.67;;;3.50;;
9997;SDS011;5038;53.064;8.624;2022-07-29T08:03:40;6.13;;;3.20;;
9997;SDS011;5038;53.064;8.624;2022-07-29T08:06:09;5.17;;;3.20;;
9997;SDS011;5038;53.064;8.624;2022-07-29T08:08:38;4.30;;;3.30;;
9997;SDS011;5038;53.064;8.624;2022-07-29T08:11:06;6.67;;;3.40;;
9997;SDS011;5038;53.064;8.624;2022-07-29T08:13:35;3.70;;;3.23;;
9997;SDS011;5038;53.064;8.624;2022-07-29T08:16:05;4.20;;;3.27;;
9997;SDS011;5038;53.064;8.624;2022-07-29T08:18:41;4.53;;;3.30;;
9997;SDS011;5038;53.064;8.624;2022-07-29T08:21:12;4.77;;;3.00;;
9997;SDS011;5038;53.064;8.624;2022-07-29T08:23:41;4.80;;;3.20;;
9997;SDS011;5038;53.064;8.624;2022-07-29T08:26:26;4.00;;;3.30;;
9997;SDS011;5038;53.064;8.624;2022-07-29T08:28:54;5.80;;;3.40;;
9997;SDS011;5038;53.064;8.624;2022-07-29T08:31:22;4.10;;;3.07;;
9997;SDS011;5038;53.064;8.624;2022-07-29T08:33:51;3.80;;;3.10;;
9997;SDS011;5038;53.064;8.624;2022-07-29T08:36:20;5.20;;;3.57;;
9997;SDS011;5038;53.064;8.624;2022-07-29T08:38:48;6.40;;;2.87;;
9997;SDS011;5038;53.064;8.624;2022-07-29T08:41:18;4.20;;;3.20;;
9997;SDS011;5038;53.064;8.624;2022-07-29T08:43:46;4.30;;;3.30;;
9997;SDS011;5038;53.064;8.624;2022-07-29T08:46:14;3.53;;;2.90;;
9997;SDS011;5038;53.064;8.624;2022-07-29T08:48:43;7.37;;;2.97;;
9997;SDS011;5038;53.064;8.624;2022-07-29T08:51:12;7.43;;;3.83;;
9997;SDS011;5038;53.064;8.624;2022-07-29T08:53:43;5.13;;;3.20;;
9997;SDS011;5038;53.064;8.624;2022-07-29T08:56:13;4.93;;;3.77;;
9997;SDS011;5038;53.064;8.624;2022-07-29T08:58:44;4.57;;;3.43;;
9997;SDS011;5038;53.064;8.624;2022-07-29T09:01:20;8.50;;;3.20;;
9997;SDS011;5038;53.064;8.624;2022-07-29T09:04:03;3.93;;;3.17;;
9997;SDS011;5038;53.064;8.624;2022-07-29T09:06:34;4.57;;;2.63;;
9997;SDS011;5038;53.064;8.624;2022-07-29T09:09:08;4.37;;;2.90;;
9997;SDS011;5038;53.064;8.624;2022-07-29T09:11:36;5.00;;;3.10;;
9997;SDS011;5038;53.064;8.624;2022-07-29T09:14:04;5.70;;;3.30;;
9997;SDS011;5038;53.064;8.624;2022-07-29T09:16:45;3.80;;;2.83;;
9997;SDS011;5038;53.064;8.624;2022-07-29T09:19:20;4.87;;;2.80;;
9997;SDS011;5038;53.064;8.624;2022-07-29T09:21:50;3.57;;;2.63;;
9997;SDS011;5038;53.064;8.624;2022-07-29T09:24:27;3.20;;;2.90;;
9997;SDS011;5038;53.064;8.624;2022-07-29T09:27:08;5.07;;;3.27;;
9997;SDS011;5038;53.064;8.624;2022-07-29T09:29:48;5.03;;;2.97;;
9997;SDS011;5038;53.064;8.624;2022-07-29T09:32:23;4.23;;;2.73;;
9997;SDS011;5038;53.064;8.624;2022-07-29T09:37:42;6.43;;;2.80;;
9997;SDS011;5038;53.064;8.624;2022-07-29T09:40:13;3.57;;;2.80;;
9997;SDS011;5038;53.064;8.624;2022-07-29T09:42:43;5.07;;;2.80;;
9997;SDS011;5038;53.064;8.624;2022-07-29T09:45:12;4.00;;;2.93;;
9997;SDS011;5038;53.064;8.624;2022-07-29T09:47:53;6.13;;;2.73;;
9997;SDS011;5038;53.064;8.624;2022-07-29T09:50:33;6.10;;;3.50;;
9997;SDS011;5038;53.064;8.624;2022-07-29T09:53:02;4.30;;;2.87;;
9997;SDS011;5038;53.064;8.624;2022-07-29T09:55:32;4.00;;;2.60;;
9997;SDS011;5038;53.064;8.624;2022-07-29T09:58:16;3.57;;;2.70;;
9997;SDS011;5038;53.064;8.624;2022-07-29T10:00:45;5.90;;;3.53;;
9997;SDS011;5038;53.064;8.624;2022-07-29T10:03:15;3.90;;;2.80;;
9997;SDS011;5038;53.064;8.624;2022-07-29T10:05:44;5.57;;;3.43;;
9997;SDS011;5038;53.064;8.624;2022-07-29T10:08:13;6.27;;;3.23;;
9997;SDS011;5038;53.064;8.624;2022-07-29T10:11:02;6.07;;;2.50;;
9997;SDS011;5038;53.064;8.624;2022-07-29T10:13:37;3.23;;;2.70;;
9997;SDS011;5038;53.064;8.624;2022-07-29T10:16:06;7.47;;;2.80;;
9997;SDS011;5038;53.064;8.624;2022-07-29T10:18:35;5.40;;;3.17;;
9997;SDS011;5038;53.064;8.624;2022-07-29T10:21:05;6.43;;;3.03;;
9997;SDS011;5038;53.064;8.624;2022-07-29T10:23:33;6.00;;;2.80;;
9997;SDS011;5038;53.064;8.624;2022-07-29T10:26:13;5.93;;;3.27;;
9997;SDS011;5038;53.064;8.624;2022-07-29T10:28:43;3.40;;;2.60;;
9997;SDS011;5038;53.064;8.624;2022-07-29T10:31:13;3.93;;;2.53;;
9997;SDS011;5038;53.064;8.624;2022-07-29T10:33:52;6.20;;;2.67;;
9997;SDS011;5038;53.064;8.624;2022-07-29T10:36:38;5.03;;;2.70;;
9997;SDS011;5038;53.064;8.624;2022-07-29T10:39:18;4.70;;;2.70;;
9997;SDS011;5038;53.064;8.624;2022-07-29T10:42:19;4.80;;;2.50;;
9997;SDS011;5038;53.064;8.624;2022-07-29T10:45:00;3.27;;;2.50;;
9997;SDS011;5038;53.064;8.624;2022-07-29T10:47:31;3.40;;;2.57;;
9997;SDS011;5038;53.064;8.624;2022-07-29T10:50:01;3.90;;;2.50;;
9997;SDS011;5038;53.064;8.624;2022-07-29T10:55:30;4.83;;;2.30;;
9997;SDS011;5038;53.064;8.624;2022-07-29T10:58:16;3.60;;;2.67;;
9997;SDS011;5038;53.064;8.624;2022-07-29T11:00:47;5.17;;;2.30;;
9997;SDS011;5038;53.064;8.624;2022-07-29T11:03:42;4.73;;;2.80;;
9997;SDS011;5038;53.064;8.624;2022-07-29T11:06:16;4.63;;;2.27;;
9997;SDS011;5038;53.064;8.624;2022-07-29T11:12:00;4.43;;;2.60;;
9997;SDS011;5038;53.064;8.624;2022-07-29T11:17:25;4.90;;;2.70;;
9997;SDS011;5038;53.064;8.624;2022-07-29T11:20:32;4.30;;;2.40;;
9997;SDS011;5038;53.064;8.624;2022-07-29T11:23:22;5.20;;;2.23;;
9997;SDS011;5038;53.064;8.624;2022-07-29T11:28:50;4.50;;;2.70;;
9997;SDS011;5038;53.064;8.624;2022-07-29T11:31:33;5.60;;;2.93;;
9997;SDS011;5038;53.064;8.624;2022-07-29T11:34:21;4.07;;;2.70;;
9997;SDS011;5038;53.064;8.624;2022-07-29T11:37:14;3.87;;;2.23;;
9997;SDS011;5038;53.064;8.624;2022-07-29T11:39:46;2.90;;;2.40;;
9997;SDS011;5038;53.064;8.624;2022-07-29T11:42:39;4.20;;;2.30;;
9997;SDS011;5038;53.064;8.624;2022-07-29T11:45:15;7.67;;;2.73;;
9997;SDS011;5038;53.064;8.624;2022-07-29T11:48:16;3.33;;;2.40;;
9997;SDS011;5038;53.064;8.624;2022-07-29T11:50:57;5.20;;;2.67;;
9997;SDS011;5038;53.064;8.624;2022-07-29T11:53:28;5.43;;;2.40;;
9997;SDS011;5038;53.064;8.624;2022-07-29T11:55:59;3.60;;;2.40;;
9997;SDS011;5038;53.064;8.624;2022-07-29T11:58:29;3.80;;;2.40;;
9997;SDS011;5038;53.064;8.624;2022-07-29T12:00:58;4.40;;;2.13;;
9997;SDS011;5038;53.064;8.624;2022-07-29T12:03:32;4.07;;;2.37;;
9997;SDS011;5038;53.064;8.624;2022-07-29T12:06:03;3.30;;;2.33;;
9997;SDS011;5038;53.064;8.624;2022-07-29T12:08:40;8.03;;;3.00;;
9997;SDS011;5038;53.064;8.624;2022-07-29T12:11:17;2.50;;;2.00;;
9997;SDS011;5038;53.064;8.624;2022-07-29T12:13:47;3.90;;;2.80;;
9997;SDS011;5038;53.064;8.624;2022-07-29T12:16:16;7.27;;;2.57;;
9997;SDS011;5038;53.064;8.624;2022-07-29T12:18:57;3.10;;;2.00;;
9997;SDS011;5038;53.064;8.624;2022-07-29T12:21:27;7.33;;;2.43;;
9997;SDS011;5038;53.064;8.624;2022-07-29T12:23:56;5.77;;;2.43;;
9997;SDS011;5038;53.064;8.624;2022-07-29T12:26:35;3.23;;;2.30;;
9997;SDS011;5038;53.064;8.624;2022-07-29T12:29:06;2.50;;;2.10;;
9997;SDS011;5038;53.064;8.624;2022-07-29T12:31:41;3.77;;;2.30;;
9997;SDS011;5038;53.064;8.624;2022-07-29T12:34:13;4.33;;;2.77;;
9997;SDS011;5038;53.064;8.624;2022-07-29T12:36:42;5.67;;;2.30;;
9997;SDS011;5038;53.064;8.624;2022-07-29T12:39:13;4.10;;;2.00;;
9997;SDS011;5038;53.064;8.624;2022-07-29T12:41:43;5.93;;;2.23;;
9997;SDS011;5038;53.064;8.624;2022-07-29T12:44:12;3.97;;;2.00;;
9997;SDS011;5038;53.064;8.624;2022-07-29T12:46:40;6.87;;;2.93;;
9997;SDS011;5038;53.064;8.624;2022-07-29T12:49:08;4.00;;;2.53;;
9997;SDS011;5038;53.064;8.624;2022-07-29T12:51:39;5.47;;;2.27;;
9997;SDS011;5038;53.064;8.624;2022-07-29T12:54:09;3.77;;;2.40;;
9997;SDS011;5038;53.064;8.624;2022-07-29T12:56:39;3.10;;;2.43;;
9997;SDS011;5038;53.064;8.624;2022-07-29T12:59:11;5.03;;;2.33;;
9997;SDS011;5038;53.064;8.624;2022-07-29T13:01:43;4.40;;;2.40;;
9997;SDS011;5038;53.064;8.624;2022-07-29T13:04:23;5.30;;;2.20;;
9997;SDS011;5038;53.064;8.624;2022-07-29T13:07:01;5.50;;;2.97;;
9997;SDS011;5038;53.064;8.624;2022-07-29T13:09:36;3.50;;;1.93;;
9997;SDS011;5038;53.064;8.624;2022-07-29T13:12:05;4.13;;;2.10;;
9997;SDS011;5038;53.064;8.624;2022-07-29T13:14:37;4.73;;;2.57;;
9997;SDS011;5038;53.064;8.624;2022-07-29T13:17:06;3.27;;;2.30;;
9997;SDS011;5038;53.064;8.624;2022-07-29T13:19:36;5.77;;;2.60;;
9997;SDS011;5038;53.064;8.624;2022-07-29T13:22:08;4.67;;;2.27;;
9997;SDS011;5038;53.064;8.624;2022-07-29T13:24:49;4.97;;;2.37;;
9997;SDS011;5038;53.064;8.624;2022-07-29T13:27:19;5.07;;;3.33;;
9997;SDS011;5038;53.064;8.624;2022-07-29T13:29:47;4.40;;;2.33;;
9997;SDS011;5038;53.064;8.624;2022-07-29T13:32:17;3.13;;;2.30;;
9997;SDS011;5038;53.064;8.624;2022-07-29T13:34:54;5.87;;;2.30;;
9997;SDS011;5038;53.064;8.624;2022-07-29T13:37:24;4.40;;;2.73;;
9997;SDS011;5038;53.064;8.624;2022-07-29T13:39:55;5.30;;;2.97;;
9997;SDS011;5038;53.064;8.624;2022-07-29T13:42:24;3.33;;;2.37;;
9997;SDS011;5038;53.064;8.624;2022-07-29T13:44:52;4.20;;;2.17;;
9997;SDS011;5038;53.064;8.624;2022-07-29T13:47:20;3.97;;;2.10;;
9997;SDS011;5038;53.064;8.624;2022-07-29T13:49:59;5.43;;;2.20;;
9997;SDS011;5038;53.064;8.624;2022-07-29T13:52:29;4.40;;;2.40;;
9997;SDS011;5038;53.064;8.624;2022-07-29T13:54:57;5.97;;;2.17;;
9997;SDS011;5038;53.064;8.624;2022-07-29T13:57:26;3.10;;;2.30;;
9997;SDS011;5038;53.064;8.624;2022-07-29T13:59:55;4.77;;;2.00;;
9997;SDS011;5038;53.064;8.624;2022-07-29T14:02:23;4.80;;;2.10;;
9997;SDS011;5038;53.064;8.624;2022-07-29T14:04:52;5.50;;;2.70;;
9997;SDS011;5038;53.064;8.624;2022-07-29T14:07:20;5.50;;;2.40;;
9997;SDS011;5038;53.064;8.624;2022-07-29T14:09:50;3.97;;;2.50;;
9997;SDS011;5038;53.064;8.624;2022-07-29T14:12:18;4.87;;;2.60;;
9997;SDS011;5038;53.064;8.624;2022-07-29T14:14:47;4.50;;;2.23;;
9997;SDS011;5038;53.064;8.624;2022-07-29T14:17:15;3.87;;;2.50;;
9997;SDS011;5038;53.064;8.624;2022-07-29T14:19:43;7.00;;;2.33;;
9997;SDS011;5038;53.064;8.624;2022-07-29T14:22:12;5.20;;;2.50;;
9997;SDS011;5038;53.064;8.624;2022-07-29T14:24:40;4.27;;;2.77;;
9997;SDS011;5038;53.064;8.624;2022-07-29T14:27:09;5.40;;;2.20;;
9997;SDS011;5038;53.064;8.624;2022-07-29T14:29:38;3.13;;;2.23;;
9997;SDS011;5038;53.064;8.624;2022-07-29T14:32:06;4.73;;;2.40;;
9997;SDS011;5038;53.064;8.624;2022-07-29T14:34:37;3.97;;;3.03;;
9997;SDS011;5038;53.064;8.624;2022-07-29T14:37:06;4.83;;;2.30;;
9997;SDS011;5038;53.064;8.624;2022-07-29T14:39:41;5.23;;;2.07;;
9997;SDS011;5038;53.064;8.624;2022-07-29T14:42:11;4.83;;;2.23;;
9997;SDS011;5038;53.064;8.624;2022-07-29T14:44:39;4.23;;;2.20;;
9997;SDS011;5038;53.064;8.624;2022-07-29T14:47:10;7.13;;;3.10;;
9997;SDS011;5038;53.064;8.624;2022-07-29T14:49:38;5.70;;;2.60;;
9997;SDS011;5038;53.064;8.624;2022-07-29T14:52:06;4.60;;;2.80;;
9997;SDS011;5038;53.064;8.624;2022-07-29T14:54:35;3.37;;;2.00;;
9997;SDS011;5038;53.064;8.624;2022-07-29T14:57:03;6.43;;;2.97;;
9997;SDS011;5038;53.064;8.624;2022-07-29T14:59:32;6.03;;;2.77;;
9997;SDS011;5038;53.064;8.624;2022-07-29T15:02:00;4.07;;;2.77;;
9997;SDS011;5038;53.064;8.624;2022-07-29T15:04:29;3.57;;;2.70;;
9997;SDS011;5038;53.064;8.624;2022-07-29T15:06:58;6.00;;;2.30;;
9997;SDS011;5038;53.064;8.624;2022-07-29T15:09:26;4.30;;;2.60;;
9997;SDS011;5038;53.064;8.624;2022-07-29T15:11:54;4.60;;;3.00;;
9997;SDS011;5038;53.064;8.624;2022-07-29T15:14:23;4.30;;;2.70;;
9997;SDS011;5038;53.064;8.624;2022-07-29T15:16:52;5.73;;;2.30;;
9997;SDS011;5038;53.064;8.624;2022-07-29T15:19:21;6.00;;;2.60;;
9997;SDS011;5038;53.064;8.624;2022-07-29T15:21:49;6.53;;;2.80;;
9997;SDS011;5038;53.064;8.624;2022-07-29T15:24:19;3.50;;;2.40;;
9997;SDS011;5038;53.064;8.624;2022-07-29T15:26:47;3.63;;;2.67;;
9997;SDS011;5038;53.064;8.624;2022-07-29T15:29:15;3.47;;;2.50;;
9997;SDS011;5038;53.064;8.624;2022-07-29T15:31:44;5.33;;;2.40;;
9997;SDS011;5038;53.064;8.624;2022-07-29T15:34:14;6.37;;;2.50;;
9997;SDS011;5038;53.064;8.624;2022-07-29T15:36:42;3.43;;;2.57;;
9997;SDS011;5038;53.064;8.624;2022-07-29T15:39:19;2.53;;;2.20;;
9997;SDS011;5038;53.064;8.624;2022-07-29T15:41:48;4.80;;;2.70;;
9997;SDS011;5038;53.064;8.624;2022-07-29T15:44:17;4.40;;;2.30;;
9997;SDS011;5038;53.064;8.624;2022-07-29T15:46:46;6.37;;;2.77;;
9997;SDS011;5038;53.064;8.624;2022-07-29T15:49:32;6.40;;;2.80;;
9997;SDS011;5038;53.064;8.624;2022-07-29T15:52:15;7.93;;;3.23;;
9997;SDS011;5038;53.064;8.624;2022-07-29T15:54:52;4.30;;;2.57;;
9997;SDS011;5038;53.064;8.624;2022-07-29T15:57:22;6.93;;;2.83;;